Date,TemperatureHighF,TemperatureAvgF,TemperatureLowF,DewpointHighF,DewpointAvgF,DewpointLowF,HumidityHigh,HumidityAvg,HumidityLow,PressureMaxIn,PressureMinIn,WindSpeedMaxMPH,WindSpeedAvgMPH,GustSpeedMaxMPH,PrecipitationSumIn
2014-1-1,52.2,33.8,23.7,34.4,25.7,19.3,87,73,49,29.41,29.15,8,1,8,0.00
2014-1-2,45.7,36.9,22.1,43.2,29.3,9.9,91,74,58,29.28,28.87,10,2,10,0.20
2014-1-3,32.2,22.5,16.3,12.4,7.9,3.0,65,53,40,29.51,29.28,6,0,6,0.00
2014-1-4,47.1,31.0,14.9,28.9,18.1,5.9,71,59,44,29.43,29.21,17,3,17,0.00
2014-1-5,51.6,43.2,35.1,44.6,34.4,27.6,88,71,64,29.22,28.76,17,4,17,0.35
2014-1-6,35.1,17.2,7.5,27.9,3.8,-7.7,78,56,38,29.52,28.90,6,0,6,0.28
2014-1-7,68.4,10.6,1.2,66.3,-4.6,-12.0,93,50,36,29.65,29.16,0,0,0,0.00
2014-1-8,41.9,23.1,9.1,19.6,9.5,-0.9,69,57,34,29.64,29.48,6,0,6,0.00
2014-1-9,51.4,34.8,23.0,33.8,22.5,13.8,79,61,41,29.57,29.39,8,0,8,0.01
2014-1-10,47.5,42.7,39.6,45.3,39.8,33.8,93,89,79,29.39,29.00,4,0,2,0.09
2014-1-11,82.8,54.6,44.4,53.8,44.5,32.4,93,72,37,29.25,28.75,17,2,17,0.80
2014-1-12,59.7,42.8,29.7,37.7,30.9,25.7,89,65,36,29.23,29.03,5,0,5,0.00
2014-1-13,48.7,44.3,35.2,43.9,36.2,27.1,88,74,59,29.17,28.91,11,2,11,0.25
2014-1-14,59.0,46.9,36.9,44.2,37.3,27.3,92,72,42,29.07,28.87,9,1,9,0.08
2014-1-15,48.2,38.1,22.8,33.5,24.5,12.2,72,59,36,29.16,29.01,7,0,7,0.00
2014-1-16,77.7,25.1,16.7,20.1,13.4,8.3,75,62,44,29.43,28.99,4,0,4,0.00
2014-1-17,83.3,35.3,26.8,27.5,18.1,8.6,65,50,35,29.35,28.96,17,0,17,0.00
2014-1-18,43.7,32.1,17.2,16.1,11.5,4.9,65,43,27,31.00,27.97,7,0,7,0.00
2014-1-19,52.2,37.6,26.1,30.1,22.9,11.1,68,56,30,31.00,28.95,4,0,4,0.00
2014-1-20,64.2,42.4,26.6,59.8,25.2,16.6,90,53,27,29.35,28.90,7,0,7,0.00
2014-1-21,47.7,34.9,18.0,32.4,21.1,-3.3,69,57,38,29.17,28.80,9,0,9,0.00
2014-1-22,31.3,19.8,9.3,7.1,-1.5,-7.4,54,39,24,29.24,29.10,4,0,4,0.00
2014-1-23,31.8,19.8,13.6,14.1,1.8,-8.6,67,47,26,29.66,29.22,8,0,8,0.00
2014-1-24,30.9,16.5,3.4,3.1,-3.6,-8.8,58,42,24,29.72,29.26,6,0,6,0.00
2014-1-25,42.1,29.5,20.5,20.6,7.7,-2.2,58,40,32,29.26,28.91,14,1,14,0.00
2014-1-26,58.8,38.2,18.5,31.6,21.6,8.5,72,53,35,29.05,28.87,17,2,17,0.00
2014-1-27,49.5,39.2,21.0,31.6,16.9,-6.5,65,42,24,29.31,28.88,11,1,11,0.00
2014-1-28,38.1,18.8,9.7,11.1,3.2,-4.6,65,51,34,29.38,29.28,0,0,0,0.00
2014-1-29,28.6,13.2,-1.5,26.8,-4.3,-13.8,97,47,25,29.47,29.35,0,0,0,0.04
2014-1-30,41.2,21.9,2.3,19.3,5.6,-7.1,67,50,30,29.43,29.18,0,0,0,0.00
2014-1-31,56.1,35.4,21.4,28.1,17.2,9.4,62,49,29,29.30,29.17,0,0,0,0.00